createdAt,value
2023-03-13T00:01:19.145Z,100.00
2023-03-13T00:03:46.340Z,100.00
2023-03-13T00:06:13.259Z,100.00
2023-03-13T00:08:40.382Z,100.00
2023-03-13T00:11:08.213Z,100.00
2023-03-13T00:13:35.505Z,100.00
2023-03-13T00:16:03.588Z,100.00
2023-03-13T00:18:30.581Z,100.00
2023-03-13T00:21:01.115Z,100.00
2023-03-13T00:23:28.598Z,100.00
2023-03-13T00:26:03.646Z,100.00
2023-03-13T00:28:32.741Z,100.00
2023-03-13T00:31:12.392Z,100.00
2023-03-13T00:33:40.789Z,100.00
2023-03-13T00:36:09.850Z,100.00
2023-03-13T00:38:36.792Z,100.00
2023-03-13T00:41:05.554Z,100.00
2023-03-13T00:43:32.818Z,100.00
2023-03-13T00:46:00.878Z,100.00
2023-03-13T00:48:27.950Z,100.00
2023-03-13T00:50:55.198Z,100.00
2023-03-13T00:53:22.198Z,100.00
2023-03-13T00:55:53.430Z,100.00
2023-03-13T00:58:20.350Z,100.00
2023-03-13T01:00:47.308Z,100.00
2023-03-13T01:03:14.632Z,100.00
2023-03-13T01:05:42.330Z,100.00
2023-03-13T01:08:09.340Z,100.00
2023-03-13T01:10:36.737Z,100.00
2023-03-13T01:13:04.952Z,100.00
2023-03-13T01:15:35.084Z,100.00
2023-03-13T01:18:02.205Z,100.00
2023-03-13T01:20:30.363Z,100.00
2023-03-13T01:22:57.312Z,100.00
2023-03-13T01:25:25.274Z,100.00
2023-03-13T01:27:52.464Z,100.00
2023-03-13T01:30:19.655Z,100.00
2023-03-13T01:32:46.573Z,100.00
2023-03-13T01:35:14.020Z,100.00
2023-03-13T01:37:41.084Z,100.00
2023-03-13T01:40:08.803Z,100.00
2023-03-13T01:42:52.785Z,100.00
2023-03-13T01:45:56.913Z,100.00
2023-03-13T01:48:33.695Z,100.00
2023-03-13T01:51:01.796Z,100.00
2023-03-13T01:53:31.623Z,100.00
2023-03-13T01:55:59.140Z,100.00
2023-03-13T01:58:26.662Z,100.00
2023-03-13T02:00:53.889Z,100.00
2023-03-13T02:03:21.009Z,100.00
2023-03-13T02:05:48.233Z,100.00
2023-03-13T02:08:23.997Z,100.00
2023-03-13T02:10:57.016Z,100.00
2023-03-13T02:13:24.032Z,100.00
2023-03-13T02:15:51.175Z,100.00
2023-03-13T02:18:18.146Z,100.00
2023-03-13T02:20:46.508Z,100.00
2023-03-13T02:23:35.282Z,100.00
2023-03-13T02:26:02.404Z,100.00
2023-03-13T02:28:35.170Z,100.00
2023-03-13T02:31:05.933Z,100.00
2023-03-13T02:33:38.932Z,100.00
2023-03-13T02:36:06.346Z,100.00
2023-03-13T02:38:35.827Z,100.00
2023-03-13T02:41:02.837Z,100.00
2023-03-13T02:43:31.511Z,100.00
2023-03-13T02:46:09.144Z,100.00
2023-03-13T02:48:47.749Z,100.00
2023-03-13T02:51:30.092Z,100.00
2023-03-13T02:54:00.887Z,100.00
2023-03-13T02:56:28.341Z,100.00
2023-03-13T02:58:56.057Z,100.00
2023-03-13T03:01:25.323Z,100.00
2023-03-13T03:03:52.483Z,100.00
2023-03-13T03:06:19.516Z,100.00
2023-03-13T03:08:47.455Z,100.00
2023-03-13T03:11:14.528Z,100.00
2023-03-13T03:13:43.611Z,100.00
2023-03-13T03:16:11.630Z,100.00
2023-03-13T03:18:38.770Z,100.00
2023-03-13T03:21:06.548Z,100.00
2023-03-13T03:23:38.197Z,100.00
2023-03-13T03:26:06.261Z,100.00
2023-03-13T03:28:33.797Z,100.00
2023-03-13T03:31:08.262Z,100.00
2023-03-13T03:33:36.850Z,100.00
2023-03-13T03:36:11.770Z,100.00
2023-03-13T03:38:39.911Z,100.00
2023-03-13T03:41:08.616Z,100.00
2023-03-13T03:43:35.969Z,100.00
2023-03-13T03:46:05.221Z,100.00
2023-03-13T03:48:32.855Z,100.00
2023-03-13T03:51:00.124Z,100.00
2023-03-13T03:53:29.005Z,100.00
2023-03-13T03:55:56.167Z,100.00
2023-03-13T03:58:23.611Z,100.00
2023-03-13T04:01:07.952Z,100.00
2023-03-13T04:03:34.994Z,100.00
2023-03-13T04:06:02.043Z,100.00
2023-03-13T04:08:29.481Z,100.00
2023-03-13T04:10:56.949Z,100.00
2023-03-13T04:13:25.593Z,100.00
2023-03-13T04:15:53.399Z,100.00
2023-03-13T04:18:21.050Z,100.00
2023-03-13T04:20:48.094Z,100.00
2023-03-13T04:23:15.119Z,100.00
2023-03-13T04:25:42.147Z,100.00
2023-03-13T04:28:11.821Z,100.00
2023-03-13T04:30:43.567Z,100.00
2023-03-13T04:33:32.326Z,100.00
2023-03-13T04:36:28.586Z,100.00
2023-03-13T04:39:25.550Z,100.00
2023-03-13T04:42:11.756Z,100.00
2023-03-13T04:44:59.022Z,100.00
2023-03-13T04:47:55.213Z,100.00
2023-03-13T04:51:00.337Z,100.00
2023-03-13T04:53:41.773Z,100.00
2023-03-13T04:56:42.156Z,100.00
2023-03-13T04:59:26.205Z,100.00
2023-03-13T05:02:13.690Z,100.00
2023-03-13T05:05:01.121Z,100.00
2023-03-13T05:07:48.160Z,100.00
2023-03-13T05:10:15.133Z,100.00
2023-03-13T05:13:05.450Z,100.00
2023-03-13T05:15:52.733Z,100.00
2023-03-13T05:18:54.597Z,100.00
2023-03-13T05:21:45.783Z,100.00
2023-03-13T05:24:41.506Z,100.00
2023-03-13T05:27:27.991Z,100.00
2023-03-13T05:30:30.286Z,100.00
2023-03-13T05:33:03.916Z,100.00
2023-03-13T05:36:03.448Z,100.00
2023-03-13T05:38:49.067Z,100.00
2023-03-13T05:41:38.037Z,100.00
2023-03-13T05:44:20.214Z,99.49
2023-03-13T05:47:05.832Z,99.87
2023-03-13T05:50:02.128Z,100.00
2023-03-13T05:52:34.912Z,98.94
2023-03-13T05:55:28.395Z,98.89
2023-03-13T05:58:18.488Z,98.52
2023-03-13T06:01:17.902Z,98.40
2023-03-13T06:03:45.098Z,98.30
2023-03-13T06:06:14.005Z,98.10
2023-03-13T06:08:52.992Z,98.23
2023-03-13T06:11:21.128Z,97.67
2023-03-13T06:13:48.286Z,96.94
2023-03-13T06:16:34.774Z,96.84
2023-03-13T06:19:14.557Z,95.79
2023-03-13T06:21:41.547Z,95.02
2023-03-13T06:24:08.607Z,95.30
2023-03-13T06:26:35.561Z,94.30
2023-03-13T06:29:02.653Z,95.52
2023-03-13T06:31:29.929Z,94.92
2023-03-13T06:33:56.893Z,94.05
2023-03-13T06:36:24.268Z,92.79
2023-03-13T06:38:51.322Z,94.60
2023-03-13T06:41:18.295Z,94.41
2023-03-13T06:43:45.327Z,93.00
2023-03-13T06:46:17.861Z,93.07
2023-03-13T06:48:46.422Z,91.24
2023-03-13T06:51:17.804Z,92.71
2023-03-13T06:53:44.823Z,92.91
2023-03-13T06:56:11.941Z,93.13
2023-03-13T06:58:38.931Z,92.95
2023-03-13T07:01:10.074Z,92.19
2023-03-13T07:03:37.461Z,93.39
2023-03-13T07:06:04.902Z,93.18
2023-03-13T07:08:32.049Z,91.90
2023-03-13T07:11:00.906Z,92.29
2023-03-13T07:13:28.047Z,93.03
2023-03-13T07:15:55.862Z,92.06
2023-03-13T07:18:23.449Z,93.54
2023-03-13T07:20:57.819Z,92.96
2023-03-13T07:23:25.552Z,94.11
2023-03-13T07:25:59.980Z,94.06
2023-03-13T07:28:27.536Z,92.54
2023-03-13T07:30:54.634Z,93.09
2023-03-13T07:33:21.652Z,93.54
2023-03-13T07:35:52.368Z,93.08
2023-03-13T07:38:19.814Z,93.03
2023-03-13T07:40:51.028Z,93.43
2023-03-13T07:43:18.220Z,93.44
2023-03-13T07:45:55.475Z,91.45
2023-03-13T07:48:23.214Z,91.33
2023-03-13T07:50:50.310Z,91.50
2023-03-13T07:53:21.541Z,90.81
2023-03-13T07:56:04.061Z,88.71
2023-03-13T07:58:32.624Z,90.37
2023-03-13T08:00:59.608Z,89.17
2023-03-13T08:03:26.970Z,89.49
2023-03-13T08:06:00.129Z,88.77
2023-03-13T08:08:27.141Z,90.93
2023-03-13T08:10:54.101Z,90.24
2023-03-13T08:13:21.121Z,90.70
2023-03-13T08:15:48.160Z,89.89
2023-03-13T08:18:15.150Z,92.11
2023-03-13T08:20:43.629Z,92.51
2023-03-13T08:23:12.166Z,91.37
2023-03-13T08:25:39.104Z,92.04
2023-03-13T08:28:06.220Z,89.72
2023-03-13T08:30:33.224Z,89.96
2023-03-13T08:33:00.436Z,90.05
2023-03-13T08:35:29.151Z,87.91
2023-03-13T08:37:56.189Z,88.92
2023-03-13T08:40:23.136Z,88.99
2023-03-13T08:42:50.219Z,86.95
2023-03-13T08:45:17.138Z,86.62
2023-03-13T08:47:44.129Z,86.75
2023-03-13T08:50:11.561Z,86.08
2023-03-13T08:52:38.623Z,86.08
2023-03-13T08:55:06.192Z,84.32
2023-03-13T08:57:33.226Z,84.81
2023-03-13T09:00:00.293Z,84.03
2023-03-13T09:02:27.433Z,82.77
2023-03-13T09:04:54.459Z,83.28
2023-03-13T09:07:21.545Z,81.95
2023-03-13T09:09:48.537Z,80.49
2023-03-13T09:12:29.582Z,78.97
2023-03-13T09:14:57.539Z,78.89
2023-03-13T09:17:24.861Z,76.28
2023-03-13T09:20:00.082Z,74.31
2023-03-13T09:22:27.726Z,74.56
2023-03-13T09:24:54.850Z,74.19
2023-03-13T09:27:21.822Z,72.75
2023-03-13T09:29:48.703Z,73.03
2023-03-13T09:32:15.781Z,72.70
2023-03-13T09:34:42.804Z,73.24
2023-03-13T09:37:09.686Z,73.17
2023-03-13T09:39:37.185Z,72.64
2023-03-13T09:42:13.744Z,71.10
2023-03-13T09:44:46.412Z,71.33
2023-03-13T09:47:16.622Z,71.95
2023-03-13T09:49:54.423Z,72.82
2023-03-13T09:52:26.026Z,73.19
2023-03-13T09:55:06.426Z,72.64
2023-03-13T09:57:53.225Z,68.98
2023-03-13T10:00:27.747Z,68.21
2023-03-13T10:03:08.328Z,69.32
2023-03-13T10:05:35.227Z,70.76
2023-03-13T10:08:44.394Z,70.45
2023-03-13T10:11:39.092Z,67.78
2023-03-13T10:14:12.880Z,68.56
2023-03-13T10:17:33.474Z,69.87
2023-03-13T10:20:25.317Z,69.08
2023-03-13T10:23:06.669Z,68.76
2023-03-13T10:25:40.800Z,67.87
2023-03-13T10:28:25.893Z,66.57
2023-03-13T10:31:10.279Z,66.39
2023-03-13T10:33:37.387Z,66.89
2023-03-13T10:36:10.134Z,66.93
2023-03-13T10:38:50.716Z,67.96
2023-03-13T10:41:31.765Z,67.02
2023-03-13T10:44:05.856Z,67.33
2023-03-13T10:46:34.436Z,67.57
2023-03-13T10:49:04.089Z,67.04
2023-03-13T10:51:39.371Z,66.31
2023-03-13T10:54:25.843Z,66.67
2023-03-13T10:56:56.084Z,67.31
2023-03-13T10:59:26.836Z,67.15
2023-03-13T11:01:58.755Z,67.49
2023-03-13T11:04:33.704Z,68.03
2023-03-13T11:07:05.565Z,66.43
2023-03-13T11:09:33.407Z,67.01
2023-03-13T11:12:17.430Z,68.96
2023-03-13T11:14:45.233Z,69.48
2023-03-13T11:17:32.944Z,69.00
2023-03-13T11:20:34.782Z,69.28
2023-03-13T11:23:34.561Z,69.48
2023-03-13T11:26:16.179Z,70.01
2023-03-13T11:28:55.354Z,71.22
2023-03-13T11:31:30.119Z,69.45
2023-03-13T11:34:15.385Z,70.53
2023-03-13T11:36:53.485Z,72.84
2023-03-13T11:39:41.697Z,72.22
2023-03-13T11:42:32.985Z,73.56
2023-03-13T11:45:08.710Z,73.69
2023-03-13T11:47:48.515Z,74.06
2023-03-13T11:50:43.085Z,72.94
2023-03-13T11:53:10.901Z,72.30
2023-03-13T11:55:40.576Z,73.05
2023-03-13T11:58:32.037Z,73.86
2023-03-13T12:01:09.567Z,73.07
2023-03-13T12:03:42.708Z,72.63
2023-03-13T12:06:36.129Z,70.93
2023-03-13T12:09:49.628Z,73.29
2023-03-13T12:12:26.425Z,71.51
2023-03-13T12:15:18.566Z,71.24
2023-03-13T12:17:52.435Z,70.63
2023-03-13T12:20:25.832Z,70.39
2023-03-13T12:22:58.495Z,70.42
2023-03-13T12:25:29.019Z,71.23
2023-03-13T12:28:01.475Z,71.56
2023-03-13T12:30:36.430Z,71.35
2023-03-13T12:33:24.005Z,72.31
2023-03-13T12:36:01.960Z,71.83
2023-03-13T12:38:37.907Z,72.12
2023-03-13T12:41:21.491Z,73.09
2023-03-13T12:44:04.151Z,72.74
2023-03-13T12:46:41.638Z,73.58
2023-03-13T12:49:32.797Z,73.26
2023-03-13T12:52:11.660Z,74.11
2023-03-13T12:54:41.514Z,78.05
2023-03-13T12:57:43.939Z,81.96
2023-03-13T13:00:16.856Z,85.69
2023-03-13T13:02:43.842Z,89.23
2023-03-13T13:05:21.110Z,94.38
2023-03-13T13:07:55.280Z,100.00
2023-03-13T13:10:25.292Z,100.00
2023-03-13T13:13:13.738Z,100.00
2023-03-13T13:16:06.348Z,100.00
2023-03-13T13:18:33.988Z,100.00
2023-03-13T13:21:05.072Z,100.00
2023-03-13T13:23:47.254Z,100.00
2023-03-13T13:26:37.413Z,100.00
2023-03-13T13:29:13.357Z,100.00
2023-03-13T13:31:52.307Z,100.00
2023-03-13T13:34:28.393Z,100.00
2023-03-13T13:36:56.435Z,100.00
2023-03-13T13:39:50.195Z,100.00
2023-03-13T13:42:42.081Z,100.00
2023-03-13T13:45:15.059Z,100.00
2023-03-13T13:47:43.856Z,100.00
2023-03-13T13:50:18.077Z,100.00
2023-03-13T13:52:45.183Z,100.00
2023-03-13T13:55:30.504Z,100.00
2023-03-13T13:58:11.471Z,100.00
2023-03-13T14:00:40.924Z,100.00
2023-03-13T14:03:22.417Z,100.00
2023-03-13T14:05:51.822Z,100.00
2023-03-13T14:08:45.232Z,100.00
2023-03-13T14:11:15.181Z,100.00
2023-03-13T14:13:42.239Z,99.97
2023-03-13T14:16:24.056Z,99.96
2023-03-13T14:18:52.160Z,99.86
2023-03-13T14:21:25.568Z,99.70
2023-03-13T14:23:52.681Z,99.19
2023-03-13T14:26:27.050Z,98.95
2023-03-13T14:28:58.717Z,99.06
2023-03-13T14:31:26.982Z,99.21
2023-03-13T14:33:54.832Z,98.93
2023-03-13T14:36:21.871Z,98.14
2023-03-13T14:38:59.179Z,98.87
2023-03-13T14:41:36.164Z,98.39
2023-03-13T14:44:07.621Z,98.46
2023-03-13T14:46:35.972Z,97.80
2023-03-13T14:49:20.871Z,97.57
2023-03-13T14:51:51.259Z,98.73
2023-03-13T14:54:37.391Z,97.61
2023-03-13T14:57:10.440Z,98.29
2023-03-13T14:59:37.398Z,97.60
2023-03-13T15:02:30.932Z,98.73
2023-03-13T15:05:02.147Z,98.39
2023-03-13T15:07:41.752Z,98.19
2023-03-13T15:10:23.432Z,98.58
2023-03-13T15:12:50.709Z,99.12
2023-03-13T15:15:17.952Z,99.14
2023-03-13T15:17:45.052Z,99.02
2023-03-13T15:20:15.459Z,99.00
2023-03-13T15:22:44.031Z,98.68
2023-03-13T15:25:19.241Z,97.87
2023-03-13T15:27:46.569Z,97.92
2023-03-13T15:30:17.514Z,98.41
2023-03-13T15:32:46.617Z,98.08
2023-03-13T15:35:29.626Z,98.46
2023-03-13T15:37:57.507Z,99.08
2023-03-13T15:40:24.888Z,98.31
2023-03-13T15:42:52.916Z,97.69
2023-03-13T15:45:20.020Z,97.61
2023-03-13T15:47:48.145Z,97.94
2023-03-13T15:50:17.398Z,96.55
2023-03-13T15:52:44.507Z,97.86
2023-03-13T15:55:12.213Z,97.02
2023-03-13T15:57:45.535Z,97.05
2023-03-13T16:00:30.638Z,96.34
2023-03-13T16:02:57.663Z,96.67
2023-03-13T16:05:24.744Z,96.71
2023-03-13T16:07:51.681Z,95.70
2023-03-13T16:10:25.532Z,96.45
2023-03-13T16:12:53.505Z,94.98
2023-03-13T16:15:20.373Z,95.38
2023-03-13T16:17:47.363Z,95.54
2023-03-13T16:20:16.460Z,95.18
2023-03-13T16:22:43.787Z,94.74
2023-03-13T16:25:10.938Z,94.64
2023-03-13T16:27:37.937Z,94.50
2023-03-13T16:30:17.840Z,94.11
2023-03-13T16:32:45.384Z,94.43
2023-03-13T16:35:12.490Z,93.99
2023-03-13T16:37:39.733Z,94.37
2023-03-13T16:40:20.066Z,94.42
2023-03-13T16:42:47.057Z,93.78
2023-03-13T16:45:14.802Z,93.65
2023-03-13T16:47:42.604Z,93.34
2023-03-13T16:50:26.072Z,93.25
2023-03-13T16:52:53.376Z,93.45
2023-03-13T16:55:20.396Z,92.61
2023-03-13T16:57:47.561Z,92.72
2023-03-13T17:00:19.308Z,93.08
2023-03-13T17:02:46.368Z,93.34
2023-03-13T17:05:15.952Z,93.40
2023-03-13T17:07:47.988Z,92.50
2023-03-13T17:10:41.168Z,92.54
2023-03-13T17:13:08.237Z,92.81
2023-03-13T17:15:35.207Z,91.93
2023-03-13T17:18:02.211Z,91.33
2023-03-13T17:20:29.591Z,91.81
2023-03-13T17:22:56.761Z,91.42
2023-03-13T17:25:24.406Z,91.20
2023-03-13T17:27:51.409Z,91.55
2023-03-13T17:30:26.177Z,90.87
2023-03-13T17:32:53.270Z,91.35
2023-03-13T17:35:20.515Z,90.81
2023-03-13T17:37:47.885Z,90.86
2023-03-13T17:40:17.237Z,90.39
2023-03-13T17:42:44.286Z,90.19
2023-03-13T17:45:11.788Z,89.90
2023-03-13T17:47:38.715Z,89.86
2023-03-13T17:50:26.984Z,89.55
2023-03-13T17:52:54.290Z,89.83
2023-03-13T17:55:21.367Z,89.85
2023-03-13T17:57:48.903Z,89.57
2023-03-13T18:00:30.285Z,89.32
2023-03-13T18:02:57.829Z,89.34
2023-03-13T18:05:25.702Z,89.34
2023-03-13T18:07:56.934Z,89.48
2023-03-13T18:10:25.670Z,89.39
2023-03-13T18:12:53.129Z,89.09
2023-03-13T18:15:20.574Z,89.35
2023-03-13T18:17:47.851Z,89.24
2023-03-13T18:20:23.521Z,88.99
2023-03-13T18:22:50.528Z,89.09
2023-03-13T18:25:17.782Z,88.90
2023-03-13T18:27:44.839Z,88.88
2023-03-13T18:30:17.661Z,88.80
2023-03-13T18:32:45.073Z,88.39
2023-03-13T18:35:13.732Z,88.86
2023-03-13T18:37:41.371Z,89.44
2023-03-13T18:40:22.405Z,88.82
2023-03-13T18:42:49.330Z,88.12
2023-03-13T18:45:17.251Z,88.41
2023-03-13T18:47:44.198Z,88.48
2023-03-13T18:50:28.526Z,88.09
2023-03-13T18:52:56.518Z,88.11
2023-03-13T18:55:24.380Z,88.40
2023-03-13T18:57:51.388Z,88.02
2023-03-13T19:00:24.164Z,87.45
2023-03-13T19:02:51.207Z,88.20
2023-03-13T19:05:18.291Z,87.40
2023-03-13T19:07:45.285Z,87.54
2023-03-13T19:10:24.348Z,87.76
2023-03-13T19:12:51.671Z,88.00
2023-03-13T19:15:21.896Z,87.33
2023-03-13T19:17:48.863Z,87.50
2023-03-13T19:20:17.908Z,87.71
2023-03-13T19:22:44.960Z,87.68
2023-03-13T19:25:11.967Z,87.21
2023-03-13T19:27:40.773Z,87.45
2023-03-13T19:30:17.804Z,87.67
2023-03-13T19:32:45.127Z,87.20
2023-03-13T19:35:18.834Z,87.79
2023-03-13T19:37:46.172Z,87.07
2023-03-13T19:40:18.532Z,86.79
2023-03-13T19:42:45.677Z,86.61
2023-03-13T19:45:12.908Z,86.77
2023-03-13T19:47:39.855Z,86.88
2023-03-13T19:50:07.415Z,87.16
2023-03-13T19:52:34.529Z,86.50
2023-03-13T19:55:05.187Z,86.73
2023-03-13T19:57:32.457Z,86.72
2023-03-13T19:59:59.484Z,87.10
2023-03-13T20:02:26.437Z,86.42
2023-03-13T20:04:53.488Z,86.65
2023-03-13T20:07:20.420Z,86.87
2023-03-13T20:09:47.452Z,86.81
2023-03-13T20:12:14.460Z,86.91
2023-03-13T20:14:41.409Z,86.45
2023-03-13T20:17:08.331Z,86.61
2023-03-13T20:19:35.256Z,86.16
2023-03-13T20:22:05.240Z,86.69
2023-03-13T20:24:33.654Z,86.26
2023-03-13T20:27:01.136Z,86.46
2023-03-13T20:29:28.217Z,86.79
2023-03-13T20:31:56.033Z,85.79
2023-03-13T20:34:22.946Z,85.89
2023-03-13T20:36:50.022Z,85.79
2023-03-13T20:39:16.999Z,85.81
2023-03-13T20:41:43.906Z,85.33
2023-03-13T20:44:11.067Z,85.70
2023-03-13T20:46:38.011Z,85.43
2023-03-13T20:49:05.077Z,85.69
2023-03-13T20:51:32.672Z,85.38
2023-03-13T20:54:00.155Z,85.98
2023-03-13T20:56:27.050Z,85.43
2023-03-13T20:58:53.887Z,85.95
2023-03-13T21:01:22.365Z,85.54
2023-03-13T21:03:49.457Z,85.74
2023-03-13T21:06:17.367Z,85.31
2023-03-13T21:08:44.564Z,85.67
2023-03-13T21:11:19.239Z,85.22
2023-03-13T21:13:46.493Z,85.48
2023-03-13T21:16:13.853Z,85.52
2023-03-13T21:18:40.910Z,85.46
2023-03-13T21:21:12.657Z,85.71
2023-03-13T21:23:39.702Z,85.07
2023-03-13T21:26:06.765Z,85.39
2023-03-13T21:28:33.680Z,85.51
2023-03-13T21:31:13.097Z,85.65
2023-03-13T21:33:41.236Z,85.63
2023-03-13T21:36:08.982Z,85.86
2023-03-13T21:38:35.978Z,85.39
2023-03-13T21:41:08.058Z,85.86
2023-03-13T21:43:35.033Z,85.63
2023-03-13T21:46:04.013Z,85.43
2023-03-13T21:48:30.973Z,85.81
2023-03-13T21:50:57.977Z,86.20
2023-03-13T21:53:24.916Z,85.77
2023-03-13T21:55:52.087Z,85.44
2023-03-13T21:58:19.241Z,85.96
2023-03-13T22:00:46.262Z,86.10
2023-03-13T22:03:13.376Z,86.16
2023-03-13T22:05:43.832Z,86.01
2023-03-13T22:08:10.784Z,85.84
2023-03-13T22:10:38.129Z,86.21
2023-03-13T22:13:06.447Z,86.22
2023-03-13T22:15:33.405Z,86.52
2023-03-13T22:18:00.417Z,86.59
2023-03-13T22:20:27.607Z,86.44
2023-03-13T22:22:54.506Z,86.14
2023-03-13T22:25:21.496Z,86.58
2023-03-13T22:27:48.383Z,86.19
2023-03-13T22:30:15.364Z,86.20
2023-03-13T22:32:42.384Z,86.48
2023-03-13T22:35:09.775Z,86.50
2023-03-13T22:37:36.781Z,86.90
2023-03-13T22:40:04.223Z,86.64
2023-03-13T22:42:31.213Z,86.33
2023-03-13T22:44:58.258Z,86.62
2023-03-13T22:47:26.065Z,86.83
2023-03-13T22:49:53.734Z,87.27
2023-03-13T22:52:21.842Z,87.23
2023-03-13T22:54:48.732Z,87.10
2023-03-13T22:57:15.676Z,87.16
2023-03-13T22:59:42.655Z,86.85
2023-03-13T23:02:09.613Z,87.29
2023-03-13T23:04:36.645Z,87.57
2023-03-13T23:07:03.630Z,87.43
2023-03-13T23:09:30.738Z,87.42
2023-03-13T23:11:57.774Z,87.64
2023-03-13T23:14:29.064Z,87.46
2023-03-13T23:16:56.967Z,87.84
2023-03-13T23:19:24.024Z,87.72
2023-03-13T23:21:50.958Z,87.94
2023-03-13T23:24:17.840Z,87.24
2023-03-13T23:26:44.840Z,88.03
2023-03-13T23:29:11.760Z,88.31
2023-03-13T23:31:38.682Z,88.17
2023-03-13T23:34:05.706Z,88.33
2023-03-13T23:36:32.622Z,88.55
2023-03-13T23:38:59.750Z,88.67
2023-03-13T23:41:26.836Z,88.58
2023-03-13T23:43:53.692Z,88.50
2023-03-13T23:46:22.341Z,88.74
2023-03-13T23:48:52.539Z,88.64
2023-03-13T23:51:19.487Z,88.79
2023-03-13T23:53:46.538Z,89.13
2023-03-13T23:56:13.517Z,89.43
2023-03-13T23:58:40.638Z,89.54
